Time;durP1;ratioP1;P1;durP2;ratioP2;P2;SDS_P1;SDS_P2;PMS_P1;PMS_P2;Temp;Humidity;BMP_temperature;BMP_pressure;BME280_temperature;BME280_humidity;BME280_pressure;Samples;Min_cycle;Max_cycle;Signal;HPM_P1;HPM_P2
2022/11/05 00:09:31;;;;;;;8.13;6.37;;;13.40;1.00;;;;;;5099041;28;20090;-61
2022/11/05 00:17:51;;;;;;;11.90;6.70;;;13.40;1.00;;;;;;5094927;28;20039;-61
2022/11/05 00:20:17;;;;;;;13.25;6.90;;;13.40;1.00;;;;;;5100104;28;20416;-62
2022/11/05 00:25:28;;;;;;;9.57;7.57;;;13.30;1.00;;;;;;5100256;28;20085;-61
2022/11/05 00:28:00;;;;;;;12.13;7.85;;;13.30;1.00;;;;;;5094011;28;20028;-61
2022/11/05 00:30:27;;;;;;;9.23;6.95;;;13.30;1.00;;;;;;5105014;28;20024;-61
2022/11/05 00:32:52;;;;;;;10.93;6.97;;;13.40;1.00;;;;;;5094086;28;20117;-61
2022/11/05 00:35:20;;;;;;;9.40;6.40;;;13.30;1.00;;;;;;5105693;28;20113;-61
2022/11/05 00:37:47;;;;;;;12.18;7.68;;;13.40;1.00;;;;;;5094182;28;20043;-61
2022/11/05 00:40:13;;;;;;;8.98;6.63;;;13.30;1.00;;;;;;5106133;28;20170;-61
2022/11/05 00:45:46;;;;;;;9.05;7.10;;;13.30;1.00;;;;;;5033184;28;20037;-61
2022/11/05 00:51:33;;;;;;;12.50;6.85;;;13.20;1.00;;;;;;5092852;28;20521;-61
2022/11/05 00:53:59;;;;;;;13.52;7.25;;;13.30;1.00;;;;;;5110203;28;20027;-61
2022/11/05 00:56:24;;;;;;;13.52;6.57;;;13.30;1.00;;;;;;5107225;28;20040;-61
2022/11/05 00:58:50;;;;;;;8.90;6.35;;;13.30;1.00;;;;;;5093207;28;20495;-61
2022/11/05 01:01:16;;;;;;;9.23;6.40;;;13.20;1.00;;;;;;5106632;28;20091;-61
2022/11/05 01:03:41;;;;;;;7.13;5.75;;;13.20;1.00;;;;;;5098184;28;20058;-61
2022/11/05 01:06:11;;;;;;;8.30;5.65;;;13.20;1.00;;;;;;5098418;28;20066;-61
2022/11/05 01:08:38;;;;;;;9.20;6.18;;;13.20;1.00;;;;;;5093451;28;20016;-61
2022/11/05 01:11:09;;;;;;;13.98;6.38;;;13.20;1.00;;;;;;5094618;28;20081;-61
2022/11/05 01:13:36;;;;;;;8.00;6.25;;;13.20;1.00;;;;;;5089183;28;20023;-61
2022/11/05 01:16:07;;;;;;;6.22;5.40;;;13.10;1.00;;;;;;5095769;28;20076;-62
2022/11/05 01:18:32;;;;;;;6.95;6.00;;;13.20;1.00;;;;;;5100149;28;20043;-61
2022/11/05 01:20:58;;;;;;;9.65;6.43;;;13.20;1.00;;;;;;5109610;28;20441;-61
2022/11/05 01:23:23;;;;;;;11.50;6.43;;;13.10;1.00;;;;;;5097692;28;20405;-61
2022/11/05 01:25:49;;;;;;;7.25;5.90;;;13.10;1.00;;;;;;5104798;28;20040;-61
2022/11/05 01:28:15;;;;;;;6.75;5.28;;;13.10;1.00;;;;;;5113714;28;20027;-61
2022/11/05 01:30:40;;;;;;;9.38;5.75;;;13.10;1.00;;;;;;5112722;28;20031;-61
2022/11/05 01:33:06;;;;;;;8.52;6.28;;;13.10;1.00;;;;;;5113272;28;20020;-62
2022/11/05 01:35:32;;;;;;;11.63;6.30;;;13.10;1.00;;;;;;5111543;27;20024;-61
2022/11/05 01:37:57;;;;;;;6.53;5.65;;;13.10;1.00;;;;;;5092926;28;20024;-62
2022/11/05 01:40:24;;;;;;;9.32;5.78;;;13.00;1.00;;;;;;5109360;28;20039;-62
2022/11/05 01:42:50;;;;;;;11.10;6.00;;;13.00;1.00;;;;;;5112357;28;20024;-61
2022/11/05 01:45:22;;;;;;;8.80;6.38;;;13.00;1.00;;;;;;5112060;28;20035;-61
2022/11/05 01:47:50;;;;;;;9.07;5.95;;;13.00;1.00;;;;;;5098299;28;20122;-62
2022/11/05 01:50:22;;;;;;;7.13;5.40;;;13.00;1.00;;;;;;5098708;28;20376;-61
2022/11/05 01:52:51;;;;;;;8.50;5.70;;;13.00;1.00;;;;;;5099314;28;20473;-62
2022/11/05 01:55:22;;;;;;;5.95;5.22;;;12.90;1.00;;;;;;5098558;28;20149;-61
2022/11/05 01:57:48;;;;;;;9.52;6.07;;;12.90;1.00;;;;;;5110101;28;20020;-61
2022/11/05 02:00:15;;;;;;;6.10;5.00;;;13.00;1.00;;;;;;5111735;28;20027;-61
2022/11/05 02:02:42;;;;;;;10.02;5.03;;;12.90;1.00;;;;;;5112822;28;20012;-62
2022/11/05 02:05:09;;;;;;;7.00;5.03;;;12.90;1.00;;;;;;5111037;28;20063;-61
2022/11/05 02:07:54;;;;;;;6.18;4.47;;;12.80;1.00;;;;;;5111125;28;20028;-62
2022/11/05 02:10:21;;;;;;;4.82;4.25;;;12.90;1.00;;;;;;5112338;28;20043;-62
2022/11/05 02:12:47;;;;;;;6.90;4.57;;;12.80;1.00;;;;;;5112491;28;20028;-61
2022/11/05 02:15:15;;;;;;;5.18;3.58;;;12.70;1.00;;;;;;5110923;28;20027;-63
2022/11/05 02:18:11;;;;;;;4.43;3.47;;;12.80;1.00;;;;;;5112027;28;20024;-62
2022/11/05 02:21:04;;;;;;;5.85;3.90;;;12.70;1.00;;;;;;5078967;28;20047;-61
2022/11/05 02:23:35;;;;;;;4.63;3.80;;;12.70;1.00;;;;;;5112282;28;20027;-61
2022/11/05 02:26:42;;;;;;;3.70;3.03;;;12.70;1.00;;;;;;5110712;28;20031;-61
2022/11/05 02:29:31;;;;;;;4.68;3.33;;;12.70;1.00;;;;;;5092768;28;20023;-62
2022/11/05 02:32:19;;;;;;;3.47;2.60;;;12.70;1.00;;;;;;5109947;28;20027;-62
2022/11/05 02:35:03;;;;;;;4.72;2.85;;;12.70;1.00;;;;;;5111150;28;20035;-61
2022/11/05 02:37:43;;;;;;;4.88;3.33;;;12.70;1.00;;;;;;5093407;28;20549;-62
2022/11/05 02:40:32;;;;;;;5.10;3.13;;;12.60;1.00;;;;;;5097723;28;20077;-61
2022/11/05 02:43:28;;;;;;;4.85;3.38;;;12.60;1.00;;;;;;5111631;28;20059;-62
2022/11/05 02:46:26;;;;;;;3.20;2.78;;;12.60;1.00;;;;;;5110793;28;20043;-62
2022/11/05 02:49:06;;;;;;;4.90;2.90;;;12.60;1.00;;;;;;5087479;28;20028;-61
2022/11/05 02:51:52;;;;;;;5.88;2.55;;;12.60;1.00;;;;;;5107672;28;20039;-62
2022/11/05 02:54:29;;;;;;;4.20;2.72;;;12.50;1.00;;;;;;5111169;28;20027;-61
2022/11/05 02:56:57;;;;;;;4.88;2.60;;;12.50;1.00;;;;;;5110517;28;20038;-61
2022/11/05 02:59:23;;;;;;;4.15;3.30;;;12.50;1.00;;;;;;5111281;28;20476;-62
2022/11/05 03:01:50;;;;;;;3.55;2.72;;;12.60;1.00;;;;;;5109778;28;20084;-61
2022/11/05 03:04:20;;;;;;;3.45;3.08;;;12.50;1.00;;;;;;5111265;28;20724;-61
2022/11/05 03:06:54;;;;;;;3.05;2.58;;;12.50;1.00;;;;;;5110331;28;20039;-61
2022/11/05 03:09:34;;;;;;;;;;;12.50;1.00;;;;;;5111862;28;20051;-61
2022/11/05 03:12:10;;;;;;;3.00;2.50;;;12.40;1.00;;;;;;5110201;28;19942;-61
2022/11/05 03:14:55;;;;;;;3.72;2.55;;;12.40;1.00;;;;;;5111324;28;20027;-61
2022/11/05 03:17:36;;;;;;;4.80;3.33;;;12.40;1.00;;;;;;5110855;28;20016;-61
2022/11/05 03:20:44;;;;;;;5.55;3.13;;;12.40;1.00;;;;;;5114479;28;20055;-61
2022/11/05 03:23:53;;;;;;;4.20;3.38;;;12.40;1.00;;;;;;5079871;28;20040;-61
2022/11/05 03:26:30;;;;;;;4.95;2.90;;;12.30;1.00;;;;;;5096476;28;20044;-61
2022/11/05 03:29:05;;;;;;;5.18;3.35;;;12.30;1.00;;;;;;5114235;28;20044;-61
2022/11/05 03:31:32;;;;;;;3.63;2.97;;;12.30;1.00;;;;;;5114221;28;20020;-61
2022/11/05 03:34:00;;;;;;;7.07;3.17;;;12.30;1.00;;;;;;5115126;28;20043;-61
2022/11/05 03:36:40;;;;;;;4.03;2.45;;;12.30;1.00;;;;;;5114308;28;20379;-62
2022/11/05 03:39:10;;;;;;;4.07;2.90;;;12.30;1.00;;;;;;5115145;28;20034;-61
2022/11/05 03:41:37;;;;;;;4.53;2.53;;;12.30;1.00;;;;;;5095438;28;20048;-61
2022/11/05 03:44:06;;;;;;;3.13;2.70;;;12.20;1.00;;;;;;5114072;28;20516;-61
2022/11/05 03:46:41;;;;;;;4.68;2.58;;;12.30;1.00;;;;;;5109891;28;20036;-61
2022/11/05 03:49:12;;;;;;;4.68;3.22;;;12.20;1.00;;;;;;5106428;28;20330;-62
2022/11/05 03:51:48;;;;;;;6.22;2.65;;;12.20;1.00;;;;;;5107411;28;20041;-61
2022/11/05 03:54:14;;;;;;;3.35;2.55;;;12.10;1.00;;;;;;5098037;28;20028;-61
2022/11/05 03:56:43;;;;;;;4.13;2.42;;;12.20;1.00;;;;;;5091862;28;20104;-61
2022/11/05 03:59:09;;;;;;;2.30;1.83;;;12.20;1.00;;;;;;5097904;28;20024;-62
2022/11/05 04:01:37;;;;;;;5.57;2.25;;;12.20;1.00;;;;;;5105704;28;20023;-61
2022/11/05 04:04:04;;;;;;;4.00;2.53;;;12.20;1.00;;;;;;5115512;28;20100;-61
2022/11/05 04:14:42;;;;;;;4.70;2.25;;;12.10;1.00;;;;;;5102656;28;20116;-62
2022/11/05 04:17:08;;;;;;;4.07;2.28;;;12.10;1.00;;;;;;5096082;28;20118;-62
2022/11/05 04:25:16;;;;;;;2.10;1.58;;;12.10;1.00;;;;;;5114965;28;20086;-61
2022/11/05 04:27:42;;;;;;;2.70;1.83;;;12.00;1.00;;;;;;5114569;27;20372;-62
2022/11/05 04:30:18;;;;;;;2.70;1.70;;;12.00;1.00;;;;;;5113498;28;20452;-61
2022/11/05 04:33:11;;;;;;;3.75;1.73;;;12.00;1.00;;;;;;5108328;28;20060;-61
2022/11/05 04:35:40;;;;;;;3.67;1.88;;;11.90;1.00;;;;;;5105002;28;20039;-62
2022/11/05 04:38:08;;;;;;;3.97;1.52;;;11.90;1.00;;;;;;5113665;28;20118;-62
2022/11/05 04:40:34;;;;;;;3.97;1.70;;;12.00;1.00;;;;;;5114494;28;20107;-61
2022/11/05 04:43:00;;;;;;;2.10;1.85;;;12.00;1.00;;;;;;5099024;27;20185;-61
2022/11/05 04:45:29;;;;;;;4.03;2.00;;;11.90;1.00;;;;;;5105162;28;20039;-61
2022/11/05 04:47:55;;;;;;;6.63;2.05;;;12.00;1.00;;;;;;5103874;28;20051;-61
2022/11/05 04:50:21;;;;;;;4.80;2.33;;;12.00;1.00;;;;;;5108159;28;20475;-61
2022/11/05 04:52:46;;;;;;;3.35;1.95;;;11.90;1.00;;;;;;5098117;28;20028;-61
2022/11/05 04:55:12;;;;;;;3.17;1.98;;;11.90;1.00;;;;;;5093424;28;20048;-61
2022/11/05 04:57:38;;;;;;;3.70;2.65;;;11.80;1.00;;;;;;5099062;28;20060;-61
2022/11/05 05:00:06;;;;;;;4.75;2.67;;;11.90;1.00;;;;;;5096486;27;20028;-62
2022/11/05 05:02:31;;;;;;;4.35;3.08;;;11.90;1.00;;;;;;5099727;28;20058;-61
2022/11/05 05:04:57;;;;;;;5.80;3.83;;;11.90;1.00;;;;;;5075478;28;20052;-62
2022/11/05 05:07:23;;;;;;;5.85;4.75;;;11.80;1.00;;;;;;5094241;28;20036;-61
2022/11/05 05:09:49;;;;;;;7.38;4.53;;;11.80;1.00;;;;;;5104935;28;20065;-61
2022/11/05 05:12:14;;;;;;;6.22;4.20;;;11.90;1.00;;;;;;5107400;28;20021;-61
2022/11/05 05:14:40;;;;;;;6.07;4.95;;;11.80;1.00;;;;;;5093528;28;20031;-61
2022/11/05 05:17:05;;;;;;;7.90;6.32;;;11.80;1.00;;;;;;5099701;28;20067;-61
2022/11/05 05:21:37;;;;;;;7.90;5.80;;;11.80;1.00;;;;;;5104279;28;20039;-61
2022/11/05 05:22:17;;;;;;;6.00;4.97;;;11.80;1.00;;;;;;5104072;28;20442;-61
2022/11/05 05:24:42;;;;;;;9.85;5.82;;;11.80;1.00;;;;;;5093179;28;20109;-62
2022/11/05 05:27:08;;;;;;;8.52;5.57;;;11.70;1.00;;;;;;5101293;28;20047;-61
2022/11/05 05:29:33;;;;;;;7.72;6.00;;;11.70;1.00;;;;;;5107240;28;20464;-61
2022/11/05 05:31:59;;;;;;;7.63;5.30;;;11.70;1.00;;;;;;5099876;28;20115;-61
2022/11/05 05:34:24;;;;;;;7.93;5.05;;;11.70;1.00;;;;;;5098068;28;20015;-61
2022/11/05 05:36:50;;;;;;;6.75;5.35;;;11.70;1.00;;;;;;5112893;28;20520;-61
2022/11/05 05:39:16;;;;;;;8.23;5.47;;;11.70;1.00;;;;;;5082302;28;20430;-61
2022/11/05 05:41:41;;;;;;;8.18;5.78;;;11.70;1.00;;;;;;5111269;28;20081;-61
2022/11/05 05:44:07;;;;;;;7.63;5.25;;;11.70;1.00;;;;;;5112936;27;20396;-61
2022/11/05 05:46:32;;;;;;;8.30;5.05;;;11.60;1.00;;;;;;5112073;28;20071;-61
2022/11/05 05:48:58;;;;;;;7.70;4.40;;;11.60;1.00;;;;;;5113556;28;20024;-61
2022/11/05 05:51:24;;;;;;;8.90;4.82;;;11.70;1.00;;;;;;5112581;28;20460;-62
2022/11/05 05:53:49;;;;;;;7.93;4.57;;;11.70;1.00;;;;;;5113074;28;20088;-62
2022/11/05 05:56:18;;;;;;;5.00;3.38;;;11.60;1.00;;;;;;5112596;28;20075;-61
2022/11/05 05:58:44;;;;;;;5.38;3.15;;;11.60;1.00;;;;;;5112620;28;20069;-62
2022/11/05 06:01:12;;;;;;;4.85;3.30;;;11.60;1.00;;;;;;5112456;28;20091;-61
2022/11/05 06:03:38;;;;;;;3.13;2.83;;;11.60;1.00;;;;;;5112324;27;20024;-61
2022/11/05 06:06:10;;;;;;;4.60;2.95;;;11.60;1.00;;;;;;5112864;28;20477;-61
2022/11/05 06:08:36;;;;;;;3.55;2.70;;;11.50;1.00;;;;;;5112339;28;20124;-62
2022/11/05 06:11:03;;;;;;;5.78;2.63;;;11.60;1.00;;;;;;5113116;28;20055;-62
2022/11/05 06:13:28;;;;;;;6.63;3.22;;;11.60;1.00;;;;;;5111185;28;20028;-62
2022/11/05 06:16:00;;;;;;;3.50;2.60;;;11.50;1.00;;;;;;5112658;28;20472;-62
2022/11/05 06:18:26;;;;;;;4.55;2.30;;;11.50;1.00;;;;;;5080135;28;20017;-62
2022/11/05 06:20:51;;;;;;;3.22;2.15;;;11.40;1.00;;;;;;5111937;28;20096;-62
2022/11/05 06:23:17;;;;;;;3.50;2.40;;;11.40;1.00;;;;;;5106679;28;20020;-61
2022/11/05 06:25:43;;;;;;;3.15;1.95;;;11.40;1.00;;;;;;5104664;28;20028;-62
2022/11/05 06:28:08;;;;;;;3.92;2.00;;;11.40;1.00;;;;;;5109641;28;20160;-62
2022/11/05 06:30:34;;;;;;;3.65;1.95;;;11.50;1.00;;;;;;5103421;28;20042;-62
2022/11/05 06:33:04;;;;;;;3.13;1.92;;;11.50;1.00;;;;;;5093191;28;20025;-62
2022/11/05 06:35:29;;;;;;;4.38;1.70;;;11.40;1.00;;;;;;5111774;28;20023;-62
2022/11/05 06:38:01;;;;;;;3.85;1.90;;;11.40;1.00;;;;;;5108902;28;20430;-62
2022/11/05 06:40:28;;;;;;;4.63;2.38;;;11.40;1.00;;;;;;5097478;28;20029;-61
2022/11/05 06:42:54;;;;;;;4.50;1.98;;;11.40;1.00;;;;;;5104467;28;20039;-62
2022/11/05 06:45:20;;;;;;;3.28;2.05;;;11.40;1.00;;;;;;5091796;28;20020;-61
2022/11/05 06:47:46;;;;;;;2.75;1.98;;;11.40;1.00;;;;;;5101851;28;20030;-61
2022/11/05 06:50:11;;;;;;;3.63;2.38;;;11.40;1.00;;;;;;5101813;28;20024;-62
2022/11/05 06:52:37;;;;;;;2.60;2.17;;;11.40;1.00;;;;;;5107359;28;20100;-61
2022/11/05 06:55:03;;;;;;;4.88;2.80;;;11.40;1.00;;;;;;5093647;28;20491;-61
2022/11/05 06:57:28;;;;;;;7.07;2.53;;;11.30;1.00;;;;;;5099014;28;20427;-61
2022/11/05 06:59:54;;;;;;;3.55;2.92;;;11.40;1.00;;;;;;5104517;28;20101;-61
2022/11/05 07:02:19;;;;;;;4.22;2.92;;;11.40;1.00;;;;;;5097284;28;20050;-61
2022/11/05 07:04:45;;;;;;;4.88;2.67;;;11.40;1.00;;;;;;5108841;28;20031;-62
2022/11/05 07:07:11;;;;;;;3.05;2.60;;;11.40;1.00;;;;;;5098158;28;20036;-62
2022/11/05 07:09:41;;;;;;;4.10;3.20;;;11.40;1.00;;;;;;5100609;28;20028;-62
2022/11/05 07:12:07;;;;;;;5.97;4.05;;;11.40;1.00;;;;;;5094722;28;20027;-62
2022/11/05 07:14:33;;;;;;;4.63;3.33;;;11.40;1.00;;;;;;5101336;28;20021;-62
2022/11/05 07:16:59;;;;;;;4.03;3.38;;;11.50;1.00;;;;;;5101249;28;20027;-62
2022/11/05 07:19:24;;;;;;;5.95;3.40;;;11.50;1.00;;;;;;5101039;28;20024;-62
2022/11/05 07:21:50;;;;;;;4.65;3.42;;;11.60;1.00;;;;;;5105525;28;20024;-61
2022/11/05 07:24:16;;;;;;;5.60;3.50;;;11.50;1.00;;;;;;5086852;28;20161;-62
2022/11/05 07:26:41;;;;;;;5.05;3.95;;;11.60;1.00;;;;;;5091413;28;20112;-62
2022/11/05 07:29:07;;;;;;;7.07;3.67;;;11.60;1.00;;;;;;5091920;28;20031;-62
2022/11/05 07:31:32;;;;;;;5.22;4.10;;;11.60;1.00;;;;;;5103937;28;20103;-62
2022/11/05 07:33:58;;;;;;;5.03;3.28;;;11.60;1.00;;;;;;5103601;28;20032;-62
2022/11/05 07:36:24;;;;;;;5.25;3.72;;;11.60;1.00;;;;;;5075949;28;21082;-62
2022/11/05 07:38:50;;;;;;;6.95;5.00;;;11.60;1.00;;;;;;5104598;28;20103;-62
2022/11/05 07:41:16;;;;;;;6.45;5.07;;;11.70;1.00;;;;;;5108577;28;20459;-62
2022/11/05 07:43:42;;;;;;;12.25;5.35;;;11.70;1.00;;;;;;5108700;28;20505;-62
2022/11/05 07:46:07;;;;;;;9.93;5.10;;;11.70;1.00;;;;;;5111112;28;20491;-62
2022/11/05 07:48:33;;;;;;;8.75;4.95;;;11.70;1.00;;;;;;5111334;28;20369;-62
2022/11/05 07:50:58;;;;;;;8.10;5.03;;;11.70;1.00;;;;;;5105307;28;20028;-62
2022/11/05 07:53:24;;;;;;;6.72;4.60;;;11.80;1.00;;;;;;5103951;28;20030;-61
2022/11/05 07:55:51;;;;;;;9.07;4.78;;;11.80;1.00;;;;;;5094184;28;20052;-62
2022/11/05 07:58:17;;;;;;;9.18;4.72;;;11.80;1.00;;;;;;5104957;28;20051;-62
2022/11/05 08:00:43;;;;;;;7.57;5.03;;;11.80;1.00;;;;;;5096508;28;20019;-62
2022/11/05 08:03:14;;;;;;;8.93;5.43;;;11.90;1.00;;;;;;5110047;28;20023;-62
2022/11/05 08:05:43;;;;;;;10.82;5.82;;;11.90;1.00;;;;;;5079360;28;20734;-62
2022/11/05 08:08:10;;;;;;;9.60;5.25;;;11.90;1.00;;;;;;5113186;28;20104;-62
2022/11/05 08:10:37;;;;;;;10.10;6.28;;;11.90;1.00;;;;;;5098235;28;20035;-63
2022/11/05 08:13:04;;;;;;;10.77;6.40;;;11.90;1.00;;;;;;5103819;28;20024;-62
2022/11/05 08:15:30;;;;;;;11.10;5.95;;;12.00;1.00;;;;;;5109025;28;20028;-62
2022/11/05 08:18:06;;;;;;;10.32;5.57;;;12.00;1.00;;;;;;5102277;28;20384;-62
2022/11/05 08:20:33;;;;;;;6.75;6.07;;;12.00;1.00;;;;;;5098950;28;20051;-62
2022/11/05 08:22:58;;;;;;;8.23;6.43;;;12.00;1.00;;;;;;5112771;28;20376;-62
2022/11/05 08:25:24;;;;;;;8.55;6.10;;;12.10;1.00;;;;;;5101309;28;20024;-62
2022/11/05 08:28:01;;;;;;;7.72;6.03;;;12.10;1.00;;;;;;5108756;28;20028;-62
2022/11/05 08:30:28;;;;;;;9.85;6.88;;;12.10;1.00;;;;;;5112529;28;20039;-62
2022/11/05 08:33:02;;;;;;;9.25;6.43;;;12.10;1.00;;;;;;5105770;27;20526;-62
2022/11/05 08:35:28;;;;;;;11.15;6.63;;;12.20;1.00;;;;;;5075879;28;20085;-62
2022/11/05 08:37:58;;;;;;;11.02;7.40;;;12.20;1.00;;;;;;5097844;28;20369;-62
2022/11/05 08:40:24;;;;;;;8.38;7.43;;;12.20;1.00;;;;;;5075990;28;20038;-62
2022/11/05 08:42:50;;;;;;;9.82;7.30;;;12.20;1.00;;;;;;5107457;28;20153;-62
2022/11/05 08:45:16;;;;;;;11.15;8.30;;;12.30;1.00;;;;;;5093840;28;20055;-62
2022/11/05 08:47:41;;;;;;;12.20;7.60;;;12.30;1.00;;;;;;5077501;28;20058;-62
2022/11/05 08:50:07;;;;;;;12.73;8.30;;;12.30;1.00;;;;;;5094203;28;20036;-62
2022/11/05 08:52:33;;;;;;;13.80;8.23;;;12.30;1.00;;;;;;5096370;28;20039;-62
2022/11/05 08:54:59;;;;;;;14.77;9.35;;;12.40;1.00;;;;;;5099706;28;20052;-62
2022/11/05 08:57:24;;;;;;;8.32;7.38;;;12.40;1.00;;;;;;5094898;28;20058;-62
2022/11/05 08:59:50;;;;;;;18.80;8.82;;;12.40;1.00;;;;;;5095924;28;20027;-62
2022/11/05 09:02:15;;;;;;;11.18;9.00;;;12.40;1.00;;;;;;5098517;28;20022;-62
2022/11/05 09:04:41;;;;;;;11.68;7.93;;;12.40;1.00;;;;;;5097355;28;20416;-63
2022/11/05 09:07:06;;;;;;;10.52;8.27;;;12.50;1.00;;;;;;5093525;28;20097;-63
2022/11/05 09:09:32;;;;;;;11.70;8.07;;;12.50;1.00;;;;;;5098371;28;20195;-62
2022/11/05 09:11:58;;;;;;;13.48;9.30;;;12.60;1.00;;;;;;5093687;28;20377;-62
2022/11/05 09:14:25;;;;;;;15.98;7.95;;;12.70;1.00;;;;;;5098535;28;20059;-62
2022/11/05 09:16:52;;;;;;;12.98;9.13;;;12.70;1.00;;;;;;5076943;28;20039;-62
2022/11/05 09:19:17;;;;;;;10.15;9.13;;;12.70;1.00;;;;;;5102720;28;20092;-63
2022/11/05 09:21:43;;;;;;;13.93;9.85;;;12.80;1.00;;;;;;5093238;28;20414;-62
2022/11/05 09:24:09;;;;;;;12.90;10.52;;;12.80;1.00;;;;;;5099798;28;20032;-62
2022/11/05 09:26:34;;;;;;;12.02;8.70;;;12.80;1.00;;;;;;5092875;28;20028;-62
2022/11/05 09:29:00;;;;;;;17.63;9.73;;;12.80;1.00;;;;;;5100894;28;20064;-63
2022/11/05 09:31:25;;;;;;;14.90;9.18;;;12.90;1.00;;;;;;5093190;28;20024;-62
2022/11/05 09:33:51;;;;;;;14.00;9.23;;;12.90;1.00;;;;;;5102359;27;20093;-63
2022/11/05 09:36:17;;;;;;;15.18;10.15;;;12.90;1.00;;;;;;5074942;28;20536;-63
2022/11/05 09:38:42;;;;;;;11.88;9.57;;;12.90;1.00;;;;;;5101891;27;20027;-63
2022/11/05 09:41:31;;;;;;;13.70;8.68;;;12.90;1.00;;;;;;5096970;28;20026;-63
2022/11/05 09:44:08;;;;;;;10.40;7.75;;;13.00;1.00;;;;;;5111072;27;20107;-62
2022/11/05 09:46:44;;;;;;;11.63;8.63;;;13.00;1.00;;;;;;5092418;28;20362;-62
2022/11/05 09:49:34;;;;;;;14.88;7.95;;;13.10;1.00;;;;;;5088246;28;20035;-62
2022/11/05 09:52:00;;;;;;;11.55;8.48;;;13.10;1.00;;;;;;5092230;28;20035;-62
2022/11/05 09:54:30;;;;;;;11.70;7.32;;;13.10;1.00;;;;;;5093005;28;20040;-61
2022/11/05 09:56:56;;;;;;;11.68;7.97;;;13.10;1.00;;;;;;5074451;28;20078;-62
2022/11/05 09:59:39;;;;;;;11.13;8.27;;;13.10;1.00;;;;;;5089733;28;20032;-62
2022/11/05 10:02:32;;;;;;;11.27;7.00;;;13.30;1.00;;;;;;5092574;28;20366;-62
2022/11/05 10:05:01;;;;;;;10.57;7.03;;;13.40;1.00;;;;;;5094448;28;20047;-63
2022/11/05 10:07:30;;;;;;;9.57;6.35;;;13.30;1.00;;;;;;5092563;28;20388;-63
2022/11/05 10:10:01;;;;;;;8.13;6.80;;;13.40;1.00;;;;;;5106712;28;20031;-62
2022/11/05 10:12:42;;;;;;;14.73;6.28;;;13.40;1.00;;;;;;5092576;28;20043;-62
2022/11/05 10:15:16;;;;;;;9.82;6.50;;;13.50;1.00;;;;;;5105296;28;20055;-62
2022/11/05 10:17:54;;;;;;;9.77;6.68;;;13.50;1.00;;;;;;5101475;28;20016;-62
2022/11/05 10:20:31;;;;;;;11.48;6.90;;;13.50;1.00;;;;;;5091663;28;20024;-62
2022/11/05 10:23:01;;;;;;;8.43;6.47;;;13.60;1.00;;;;;;5100045;28;20031;-62
2022/11/05 10:25:31;;;;;;;9.07;5.28;;;13.60;1.00;;;;;;5099072;28;20108;-62
2022/11/05 10:27:58;;;;;;;9.35;6.97;;;13.70;1.00;;;;;;5091695;28;20497;-62
2022/11/05 10:30:24;;;;;;;7.40;5.93;;;13.70;1.00;;;;;;5092072;28;20030;-62
2022/11/05 10:32:55;;;;;;;8.82;6.00;;;13.60;1.00;;;;;;5095976;28;20028;-62
2022/11/05 10:35:22;;;;;;;8.02;5.68;;;13.80;1.00;;;;;;5092021;28;20517;-62
2022/11/05 10:37:50;;;;;;;7.78;6.28;;;13.70;1.00;;;;;;5101538;28;20031;-62
2022/11/05 10:40:33;;;;;;;10.20;6.47;;;13.70;1.00;;;;;;5094722;28;20081;-62
2022/11/05 10:43:05;;;;;;;7.30;6.40;;;13.80;1.00;;;;;;5108021;28;20024;-62
2022/11/05 10:45:39;;;;;;;9.30;6.47;;;13.80;1.00;;;;;;5099822;28;20032;-62
2022/11/05 10:48:04;;;;;;;12.47;6.73;;;13.90;1.00;;;;;;5096435;28;20035;-62
2022/11/05 10:50:31;;;;;;;8.10;6.22;;;13.90;1.00;;;;;;5100723;28;20254;-62
2022/11/05 10:53:22;;;;;;;9.57;6.85;;;14.00;1.00;;;;;;5093078;28;20385;-62
2022/11/05 10:55:50;;;;;;;10.60;6.40;;;13.90;1.00;;;;;;5089396;28;20412;-61
2022/11/05 10:58:24;;;;;;;11.98;7.10;;;14.00;1.00;;;;;;5094983;28;20071;-61
2022/11/05 11:00:52;;;;;;;11.32;7.80;;;14.00;1.00;;;;;;5108143;28;20106;-62
2022/11/05 11:03:33;;;;;;;15.68;6.75;;;14.10;1.00;;;;;;5096965;28;20038;-61
2022/11/05 11:06:16;;;;;;;8.07;6.35;;;14.10;1.00;;;;;;5098894;28;20040;-61
2022/11/05 11:08:44;;;;;;;8.55;6.60;;;14.10;1.00;;;;;;5098578;28;20031;-61
2022/11/05 11:11:23;;;;;;;7.65;6.18;;;14.30;1.00;;;;;;5097684;28;20028;-61
2022/11/05 11:14:00;;;;;;;9.55;6.40;;;14.20;1.00;;;;;;5092262;28;20036;-61
2022/11/05 11:16:29;;;;;;;7.18;5.55;;;14.30;1.00;;;;;;5091450;28;20169;-61
2022/11/05 11:19:00;;;;;;;6.90;5.47;;;14.20;1.00;;;;;;5091181;28;20099;-62
2022/11/05 11:21:27;;;;;;;8.13;6.20;;;14.30;1.00;;;;;;5091454;28;20020;-61
2022/11/05 11:24:01;;;;;;;5.72;5.00;;;14.30;1.00;;;;;;5093583;28;20039;-62
2022/11/05 11:26:38;;;;;;;7.50;5.78;;;14.30;1.00;;;;;;5091368;28;20036;-62
2022/11/05 11:29:12;;;;;;;5.32;4.72;;;14.30;1.00;;;;;;5098279;28;20016;-61
2022/11/05 11:31:39;;;;;;;5.90;5.30;;;14.30;1.00;;;;;;5097376;28;20115;-61
2022/11/05 11:34:05;;;;;;;8.68;6.07;;;14.40;1.00;;;;;;5094596;28;20031;-61
2022/11/05 11:36:37;;;;;;;6.05;5.10;;;14.50;1.00;;;;;;5073270;28;20099;-61
2022/11/05 11:39:05;;;;;;;5.82;5.07;;;14.60;1.00;;;;;;5096209;28;20017;-61
2022/11/05 11:41:37;;;;;;;5.22;4.72;;;14.60;1.00;;;;;;5101150;28;20047;-61
2022/11/05 11:44:13;;;;;;;8.73;5.55;;;14.60;1.00;;;;;;5109350;28;20057;-61
2022/11/05 11:46:38;;;;;;;6.75;5.22;;;14.70;1.00;;;;;;5103793;28;20036;-62
2022/11/05 11:49:06;;;;;;;6.68;4.88;;;14.70;1.00;;;;;;5102993;28;20469;-62
2022/11/05 11:51:43;;;;;;;6.03;5.25;;;14.70;1.00;;;;;;5108397;28;20028;-62
2022/11/05 11:54:19;;;;;;;6.70;4.97;;;14.70;1.00;;;;;;5113878;28;20020;-61
2022/11/05 11:56:47;;;;;;;8.07;5.55;;;14.70;1.00;;;;;;5115117;28;20028;-62
2022/11/05 11:59:24;;;;;;;9.35;5.68;;;14.70;1.00;;;;;;5114809;28;20045;-62
2022/11/05 12:02:10;;;;;;;6.53;5.07;;;14.80;1.00;;;;;;5115300;28;20111;-62
2022/11/05 12:04:44;;;;;;;5.90;5.30;;;14.90;1.00;;;;;;5114483;28;20110;-62
2022/11/05 12:07:44;;;;;;;7.25;5.38;;;14.90;1.00;;;;;;5115403;28;20039;-62
2022/11/05 12:10:27;;;;;;;8.02;5.75;;;14.90;1.00;;;;;;5114485;28;20034;-61
2022/11/05 12:13:14;;;;;;;8.73;5.00;;;15.00;1.00;;;;;;5092251;28;20032;-61
2022/11/05 12:15:45;;;;;;;7.45;5.00;;;15.00;1.00;;;;;;5091252;28;20028;-61
2022/11/05 12:18:37;;;;;;;5.18;4.68;;;15.10;1.00;;;;;;5104277;28;20046;-61
2022/11/05 12:21:06;;;;;;;5.40;4.82;;;15.00;1.00;;;;;;5100594;28;20397;-62
2022/11/05 12:24:09;;;;;;;10.13;4.88;;;15.00;1.00;;;;;;5104864;28;20480;-62
2022/11/05 12:26:53;;;;;;;5.57;4.40;;;15.10;1.00;;;;;;5105260;28;20389;-61
2022/11/05 12:29:22;;;;;;;7.00;4.50;;;15.20;1.00;;;;;;5091770;28;20039;-62
2022/11/05 12:32:02;;;;;;;9.13;5.38;;;15.40;1.00;;;;;;5104717;28;20092;-61
2022/11/05 12:34:43;;;;;;;7.28;5.28;;;15.40;1.00;;;;;;5113928;28;20095;-61
2022/11/05 12:37:22;;;;;;;7.95;5.10;;;15.30;1.00;;;;;;5114471;28;20554;-61
2022/11/05 12:40:08;;;;;;;6.18;4.55;;;15.40;1.00;;;;;;5106586;28;20031;-61
2022/11/05 12:42:40;;;;;;;5.53;4.45;;;15.40;1.00;;;;;;5113737;28;20466;-61
2022/11/05 12:45:18;;;;;;;4.97;4.38;;;15.30;1.00;;;;;;5113729;28;20077;-61
2022/11/05 12:47:53;;;;;;;6.20;4.80;;;15.30;1.00;;;;;;5114076;28;20040;-61
2022/11/05 12:50:28;;;;;;;;;;;15.50;1.00;;;;;;5094764;28;20039;-61
2022/11/05 12:53:14;;;;;;;5.72;4.93;;;15.40;1.00;;;;;;5114129;28;19929;-61
2022/11/05 12:55:43;;;;;;;5.32;4.22;;;15.40;1.00;;;;;;5113460;28;20047;-61
2022/11/05 12:58:31;;;;;;;6.03;4.45;;;15.50;1.00;;;;;;5113980;28;20020;-62
2022/11/05 13:01:12;;;;;;;6.25;5.20;;;15.40;1.00;;;;;;5105307;28;20040;-61
2022/11/05 13:03:43;;;;;;;6.25;4.97;;;15.50;1.00;;;;;;5113423;28;20027;-61
2022/11/05 13:06:15;;;;;;;5.20;4.70;;;15.60;1.00;;;;;;5113403;28;20027;-60
2022/11/05 13:09:01;;;;;;;6.65;4.70;;;15.70;1.00;;;;;;5112427;28;20076;-61
2022/11/05 13:11:52;;;;;;;7.20;4.80;;;15.80;1.00;;;;;;5113746;28;20114;-61
2022/11/05 13:14:39;;;;;;;9.00;5.40;;;15.70;1.00;;;;;;5102162;28;20059;-62
2022/11/05 13:17:31;;;;;;;5.50;4.18;;;15.70;1.00;;;;;;5108787;28;20024;-61
2022/11/05 13:20:20;;;;;;;5.82;3.83;;;15.70;1.00;;;;;;5107116;28;20016;-61
2022/11/05 13:22:51;;;;;;;3.72;3.25;;;15.70;1.00;;;;;;5112897;28;20039;-61
2022/11/05 13:25:30;;;;;;;5.32;3.63;;;15.70;1.00;;;;;;5096218;28;20031;-61
2022/11/05 13:28:14;;;;;;;5.50;4.30;;;15.80;1.00;;;;;;5100404;28;20036;-61
2022/11/05 13:30:44;;;;;;;5.78;4.25;;;15.80;1.00;;;;;;5098391;28;20076;-61
2022/11/05 13:33:35;;;;;;;5.70;3.80;;;15.90;1.00;;;;;;5074958;28;20383;-61
2022/11/05 13:39:24;;;;;;;4.30;3.67;;;15.90;1.00;;;;;;5093202;28;20051;-61
2022/11/05 13:42:16;;;;;;;5.50;3.80;;;15.90;1.00;;;;;;5095006;28;20043;-61
2022/11/05 13:45:18;;;;;;;6.18;4.03;;;15.90;1.00;;;;;;5069336;28;20036;-61
2022/11/05 13:47:44;;;;;;;6.45;3.10;;;15.80;1.00;;;;;;5095852;28;20039;-61
2022/11/05 13:50:28;;;;;;;4.30;2.97;;;15.80;1.00;;;;;;5092759;28;20116;-61
2022/11/05 13:52:54;;;;;;;4.65;3.10;;;15.90;1.00;;;;;;5096913;28;20028;-61
2022/11/05 13:55:36;;;;;;;3.03;2.60;;;15.90;1.00;;;;;;5112980;28;20409;-61
2022/11/05 13:58:07;;;;;;;4.65;3.03;;;15.90;1.00;;;;;;5107814;28;20044;-61